MMMZ/MZT METAR and TAF weather

Enter ICAO airport designator
Station Type Date Time Source
MMMZ METAR 2023/02/05 14:40 UTC NOAA

MMMZ 051440Z 00000KT 10SM SKC 15/12 A3003 RMK SLP169 52003 957 HZY


Station Type Date Time Source
MMMZ Decoded METAR 2023/02/05 14:40 UTC NOAA

Mazatlan / G. Buelna, Mexico (MMMZ) 23-10N 106-16W
Feb 05, 2023 - 09:40 AM EST / 2023.02.05 1440 UTC
Wind: Calm:0
Visibility: 10 mile(s):0
Sky conditions: clear
Temperature: 59 F (15 C)
Dew Point: 53 F (12 C)
Relative Humidity: 82%
Pressure (altimeter): 30.03 in. Hg (1016 hPa)
Pressure tendency: 0.01 inches (0.3 hPa) higher than three hours ago
ob: MMMZ 051440Z 00000KT 10SM SKC 15/12 A3003 RMK SLP169 52003 957 HZY
cycle: 14

Station Type Date Time Source
MMMZ TAF 2023/02/05 12:59 UTC NOAA

TAF MMMZ 051059Z 0512/0612 06005KT 6SM HZ SKC TX30/0521Z TN13/0512Z
FM051900 25010KT P6SM SKC
FM060300 33005KT 6SM HZ SKC

Example: see airport list